sensor_id;sensor_type;location;lat;lon;timestamp;pressure;altitude;pressure_sealevel;temperature;humidity
56632;BME280;42503;39.928;-75.152;2022-07-22T00:00:51;100488.13;;;33.27;43.20
56632;BME280;42503;39.928;-75.152;2022-07-22T00:02:53;100506.03;;;33.31;43.16
56632;BME280;42503;39.928;-75.152;2022-07-22T00:04:54;100490.06;;;33.23;42.91
56632;BME280;42503;39.928;-75.152;2022-07-22T00:06:56;100517.72;;;33.30;43.21
56632;BME280;42503;39.928;-75.152;2022-07-22T00:09:00;100512.06;;;33.30;43.45
56632;BME280;42503;39.928;-75.152;2022-07-22T00:11:04;100516.91;;;33.29;43.52
56632;BME280;42503;39.928;-75.152;2022-07-22T00:13:05;100514.56;;;33.35;43.04
56632;BME280;42503;39.928;-75.152;2022-07-22T00:15:08;100512.94;;;33.34;43.10
56632;BME280;42503;39.928;-75.152;2022-07-22T00:17:09;100510.50;;;33.32;43.38
56632;BME280;42503;39.928;-75.152;2022-07-22T00:19:11;100521.00;;;33.32;43.33
56632;BME280;42503;39.928;-75.152;2022-07-22T00:21:12;100519.34;;;33.31;43.06
56632;BME280;42503;39.928;-75.152;2022-07-22T00:23:14;100521.38;;;33.30;43.40
56632;BME280;42503;39.928;-75.152;2022-07-22T00:25:18;100509.91;;;33.23;43.33
56632;BME280;42503;39.928;-75.152;2022-07-22T00:27:19;100516.91;;;33.29;43.23
56632;BME280;42503;39.928;-75.152;2022-07-22T00:29:20;100513.63;;;33.27;43.17
56632;BME280;42503;39.928;-75.152;2022-07-22T00:31:22;100515.28;;;33.28;43.57
56632;BME280;42503;39.928;-75.152;2022-07-22T00:33:23;100518.91;;;33.29;43.24
56632;BME280;42503;39.928;-75.152;2022-07-22T00:35:25;100526.63;;;33.28;43.24
56632;BME280;42503;39.928;-75.152;2022-07-22T00:37:28;100526.63;;;33.28;43.34
56632;BME280;42503;39.928;-75.152;2022-07-22T00:39:30;100525.72;;;33.24;43.19
56632;BME280;42503;39.928;-75.152;2022-07-22T00:41:34;100523.28;;;33.23;43.44
56632;BME280;42503;39.928;-75.152;2022-07-22T00:44:02;100535.88;;;33.25;43.75
56632;BME280;42503;39.928;-75.152;2022-07-22T00:46:03;100534.31;;;33.28;43.36
56632;BME280;42503;39.928;-75.152;2022-07-22T00:48:05;100543.63;;;33.28;43.37
56632;BME280;42503;39.928;-75.152;2022-07-22T00:50:07;100546.47;;;33.28;43.50
56632;BME280;42503;39.928;-75.152;2022-07-22T00:52:08;100550.50;;;33.27;43.51
56632;BME280;42503;39.928;-75.152;2022-07-22T00:54:10;100550.50;;;33.27;43.38
56632;BME280;42503;39.928;-75.152;2022-07-22T00:56:11;100546.78;;;33.23;43.58
56632;BME280;42503;39.928;-75.152;2022-07-22T00:58:16;100546.78;;;33.23;43.72
56632;BME280;42503;39.928;-75.152;2022-07-22T01:00:19;100551.69;;;33.26;43.88
56632;BME280;42503;39.928;-75.152;2022-07-22T01:02:22;100547.66;;;33.27;43.62
56632;BME280;42503;39.928;-75.152;2022-07-22T01:04:26;100554.50;;;33.26;43.62
56632;BME280;42503;39.928;-75.152;2022-07-22T01:06:28;100553.34;;;33.27;43.94
56632;BME280;42503;39.928;-75.152;2022-07-22T01:08:32;100564.69;;;33.27;43.75
56632;BME280;42503;39.928;-75.152;2022-07-22T01:10:37;100572.00;;;33.28;43.86
56632;BME280;42503;39.928;-75.152;2022-07-22T01:12:38;100575.22;;;33.27;43.84
56632;BME280;42503;39.928;-75.152;2022-07-22T01:14:39;100570.41;;;33.31;43.88
56632;BME280;42503;39.928;-75.152;2022-07-22T01:16:46;100576.91;;;33.31;43.99
56632;BME280;42503;39.928;-75.152;2022-07-22T01:18:47;100573.63;;;33.29;43.95
56632;BME280;42503;39.928;-75.152;2022-07-22T01:20:51;100586.59;;;33.30;44.05
56632;BME280;42503;39.928;-75.152;2022-07-22T01:22:53;100582.59;;;33.31;44.24
56632;BME280;42503;39.928;-75.152;2022-07-22T01:24:54;100595.09;;;33.30;44.31
56632;BME280;42503;39.928;-75.152;2022-07-22T01:26:55;100586.59;;;33.30;44.23
56632;BME280;42503;39.928;-75.152;2022-07-22T01:28:57;100594.28;;;33.30;44.44
56632;BME280;42503;39.928;-75.152;2022-07-22T01:30:58;100587.78;;;33.29;44.26
56632;BME280;42503;39.928;-75.152;2022-07-22T01:33:02;100597.94;;;33.30;44.45
56632;BME280;42503;39.928;-75.152;2022-07-22T01:35:04;100598.75;;;33.31;44.67
56632;BME280;42503;39.928;-75.152;2022-07-22T01:37:11;100601.59;;;33.31;44.91
56632;BME280;42503;39.928;-75.152;2022-07-22T01:39:16;100592.56;;;33.25;44.83
56632;BME280;42503;39.928;-75.152;2022-07-22T01:41:38;100613.78;;;33.31;44.92
56632;BME280;42503;39.928;-75.152;2022-07-22T01:43:39;100610.94;;;33.31;45.06
56632;BME280;42503;39.928;-75.152;2022-07-22T01:45:40;100620.28;;;33.32;45.03
56632;BME280;42503;39.928;-75.152;2022-07-22T01:47:44;100622.28;;;33.31;44.90
56632;BME280;42503;39.928;-75.152;2022-07-22T01:49:46;100619.47;;;33.31;45.21
56632;BME280;42503;39.928;-75.152;2022-07-22T01:51:47;100612.41;;;33.25;45.50
56632;BME280;42503;39.928;-75.152;2022-07-22T01:53:49;100623.94;;;33.32;45.48
56632;BME280;42503;39.928;-75.152;2022-07-22T01:55:50;100622.28;;;33.31;45.44
56632;BME280;42503;39.928;-75.152;2022-07-22T01:57:52;100619.47;;;33.31;45.52
56632;BME280;42503;39.928;-75.152;2022-07-22T01:59:54;100614.94;;;33.30;45.64
56632;BME280;42503;39.928;-75.152;2022-07-22T02:01:55;100620.63;;;33.30;45.67
56632;BME280;42503;39.928;-75.152;2022-07-22T02:03:59;100629.59;;;33.32;45.75
56632;BME280;42503;39.928;-75.152;2022-07-22T02:06:00;100629.59;;;33.32;45.70
56632;BME280;42503;39.928;-75.152;2022-07-22T02:08:08;100635.28;;;33.32;46.07
56632;BME280;42503;39.928;-75.152;2022-07-22T02:10:10;100633.63;;;33.31;45.84
56632;BME280;42503;39.928;-75.152;2022-07-22T02:12:11;100640.94;;;33.32;45.79
56632;BME280;42503;39.928;-75.152;2022-07-22T02:14:12;100645.41;;;33.33;46.32
56632;BME280;42503;39.928;-75.152;2022-07-22T02:16:14;100640.94;;;33.32;45.99
56632;BME280;42503;39.928;-75.152;2022-07-22T02:18:17;100652.28;;;33.32;46.43
56632;BME280;42503;39.928;-75.152;2022-07-22T02:20:19;100641.75;;;33.33;46.14
56632;BME280;42503;39.928;-75.152;2022-07-22T02:22:20;100650.25;;;33.33;46.14
56632;BME280;42503;39.928;-75.152;2022-07-22T02:24:21;100652.28;;;33.32;46.12
56632;BME280;42503;39.928;-75.152;2022-07-22T02:26:25;100652.28;;;33.32;46.28
56632;BME280;42503;39.928;-75.152;2022-07-22T02:28:27;100640.94;;;33.32;46.38
56632;BME280;42503;39.928;-75.152;2022-07-22T02:30:29;100642.56;;;33.33;46.20
56632;BME280;42503;39.928;-75.152;2022-07-22T02:32:47;100643.78;;;33.32;46.22
56632;BME280;42503;39.928;-75.152;2022-07-22T02:34:48;100652.28;;;33.32;46.67
56632;BME280;42503;39.928;-75.152;2022-07-22T02:36:50;100647.81;;;33.31;46.46
56632;BME280;42503;39.928;-75.152;2022-07-22T02:38:51;100642.97;;;33.32;46.82
56632;BME280;42503;39.928;-75.152;2022-07-22T02:40:52;100635.19;;;33.29;47.01
56632;BME280;42503;39.928;-75.152;2022-07-22T02:42:54;100651.47;;;33.32;46.72
56632;BME280;42503;39.928;-75.152;2022-07-22T02:44:59;100647.81;;;33.31;46.75
56632;BME280;42503;39.928;-75.152;2022-07-22T02:47:03;100647.81;;;33.31;46.74
56632;BME280;42503;39.928;-75.152;2022-07-22T02:49:04;100647.81;;;33.31;47.16
56632;BME280;42503;39.928;-75.152;2022-07-22T02:51:06;100643.78;;;33.32;46.68
56632;BME280;42503;39.928;-75.152;2022-07-22T02:53:07;100647.81;;;33.31;46.82
56632;BME280;42503;39.928;-75.152;2022-07-22T02:55:09;100640.94;;;33.32;46.76
56632;BME280;42503;39.928;-75.152;2022-07-22T02:57:10;100654.31;;;33.32;47.08
56632;BME280;42503;39.928;-75.152;2022-07-22T02:59:11;100662.72;;;33.28;47.21
56632;BME280;42503;39.928;-75.152;2022-07-22T03:01:16;100671.75;;;33.34;47.00
56632;BME280;42503;39.928;-75.152;2022-07-22T03:03:17;100662.44;;;33.33;46.83
56632;BME280;42503;39.928;-75.152;2022-07-22T03:05:18;100672.13;;;33.32;46.85
56632;BME280;42503;39.928;-75.152;2022-07-22T03:07:19;100657.97;;;33.32;46.92
56632;BME280;42503;39.928;-75.152;2022-07-22T03:09:21;100666.47;;;33.32;46.79
56632;BME280;42503;39.928;-75.152;2022-07-22T03:11:22;100663.63;;;33.32;47.12
56632;BME280;42503;39.928;-75.152;2022-07-22T03:13:24;100662.00;;;33.31;47.18
56632;BME280;42503;39.928;-75.152;2022-07-22T03:15:25;100662.72;;;33.28;47.06
56632;BME280;42503;39.928;-75.152;2022-07-22T03:17:33;100664.84;;;33.31;46.95
56632;BME280;42503;39.928;-75.152;2022-07-22T03:19:34;100670.84;;;33.30;47.25
56632;BME280;42503;39.928;-75.152;2022-07-22T03:21:38;100665.56;;;33.28;47.24
56632;BME280;42503;39.928;-75.152;2022-07-22T03:23:39;100671.66;;;33.30;47.13
56632;BME280;42503;39.928;-75.152;2022-07-22T03:25:41;100659.00;;;33.24;47.49
56632;BME280;42503;39.928;-75.152;2022-07-22T03:27:42;100670.50;;;33.31;47.45
56632;BME280;42503;39.928;-75.152;2022-07-22T03:29:44;100661.91;;;33.28;47.28
56632;BME280;42503;39.928;-75.152;2022-07-22T03:31:45;100674.16;;;33.32;47.59
56632;BME280;42503;39.928;-75.152;2022-07-22T03:33:46;100668.47;;;33.32;47.67
56632;BME280;42503;39.928;-75.152;2022-07-22T03:35:47;100670.13;;;33.33;47.59
56632;BME280;42503;39.928;-75.152;2022-07-22T03:37:51;100667.66;;;33.31;47.66
56632;BME280;42503;39.928;-75.152;2022-07-22T03:39:56;100662.00;;;33.31;48.59
56632;BME280;42503;39.928;-75.152;2022-07-22T03:42:00;100667.66;;;33.31;48.90
56632;BME280;42503;39.928;-75.152;2022-07-22T03:44:01;100676.59;;;33.33;49.04
56632;BME280;42503;39.928;-75.152;2022-07-22T03:46:11;100674.16;;;33.32;49.14
56632;BME280;42503;39.928;-75.152;2022-07-22T03:48:18;100674.88;;;33.29;49.50
56632;BME280;42503;39.928;-75.152;2022-07-22T03:50:20;100669.59;;;33.27;49.61
56632;BME280;42503;39.928;-75.152;2022-07-22T03:52:21;100675.31;;;33.31;49.70
56632;BME280;42503;39.928;-75.152;2022-07-22T03:54:23;100674.06;;;33.28;50.13
56632;BME280;42503;39.928;-75.152;2022-07-22T03:56:24;100677.72;;;33.29;49.78
56632;BME280;42503;39.928;-75.152;2022-07-22T03:58:28;100670.03;;;33.29;50.05
56632;BME280;42503;39.928;-75.152;2022-07-22T04:00:30;100675.72;;;33.29;49.99
56632;BME280;42503;39.928;-75.152;2022-07-22T04:02:31;100677.34;;;33.30;50.57
56632;BME280;42503;39.928;-75.152;2022-07-22T04:04:32;100674.88;;;33.29;50.57
56632;BME280;42503;39.928;-75.152;2022-07-22T04:06:34;100678.09;;;33.27;50.46
56632;BME280;42503;39.928;-75.152;2022-07-22T04:08:35;100678.09;;;33.27;50.37
56632;BME280;42503;39.928;-75.152;2022-07-22T04:10:36;100679.28;;;33.26;50.45
56632;BME280;42503;39.928;-75.152;2022-07-22T04:12:39;100682.13;;;33.26;50.44
56632;BME280;42503;39.928;-75.152;2022-07-22T04:14:43;100677.66;;;33.25;50.58
56632;BME280;42503;39.928;-75.152;2022-07-22T04:16:50;100686.16;;;33.25;50.27
56632;BME280;42503;39.928;-75.152;2022-07-22T04:18:51;100674.38;;;33.23;50.57
56632;BME280;42503;39.928;-75.152;2022-07-22T04:20:53;100683.69;;;33.24;50.88
56632;BME280;42503;39.928;-75.152;2022-07-22T04:22:57;100648.56;;;33.09;50.85
56632;BME280;42503;39.928;-75.152;2022-07-22T04:24:58;100669.34;;;33.17;50.82
56632;BME280;42503;39.928;-75.152;2022-07-22T04:27:02;100670.63;;;33.19;50.77
56632;BME280;42503;39.928;-75.152;2022-07-22T04:29:04;100680.41;;;33.22;50.96
56632;BME280;42503;39.928;-75.152;2022-07-22T04:31:08;100681.25;;;33.22;51.11
56632;BME280;42503;39.928;-75.152;2022-07-22T04:33:10;100683.63;;;33.20;50.67
56632;BME280;42503;39.928;-75.152;2022-07-22T04:35:11;100682.41;;;33.21;50.78
56632;BME280;42503;39.928;-75.152;2022-07-22T04:37:12;100678.75;;;33.21;50.72
56632;BME280;42503;39.928;-75.152;2022-07-22T04:39:14;100683.63;;;33.20;50.57
56632;BME280;42503;39.928;-75.152;2022-07-22T04:41:15;100678.75;;;33.21;50.63
56632;BME280;42503;39.928;-75.152;2022-07-22T04:43:19;100672.28;;;33.20;50.63
56632;BME280;42503;39.928;-75.152;2022-07-22T04:45:20;100682.78;;;33.20;50.79
56632;BME280;42503;39.928;-75.152;2022-07-22T04:47:22;100689.28;;;33.20;50.70
56632;BME280;42503;39.928;-75.152;2022-07-22T04:49:23;100674.22;;;33.16;50.51
56632;BME280;42503;39.928;-75.152;2022-07-22T04:51:26;100677.50;;;33.18;50.60
56632;BME280;42503;39.928;-75.152;2022-07-22T04:53:28;100678.69;;;33.17;50.39
56632;BME280;42503;39.928;-75.152;2022-07-22T04:55:30;100685.19;;;33.18;50.49
56632;BME280;42503;39.928;-75.152;2022-07-22T04:57:31;100687.19;;;33.17;50.39
56632;BME280;42503;39.928;-75.152;2022-07-22T04:59:32;100682.56;;;33.09;50.37
56632;BME280;42503;39.928;-75.152;2022-07-22T05:01:34;100694.44;;;33.14;50.36
56632;BME280;42503;39.928;-75.152;2022-07-22T05:03:38;100695.53;;;33.10;50.26
56632;BME280;42503;39.928;-75.152;2022-07-22T05:05:39;100699.28;;;33.14;50.52
56632;BME280;42503;39.928;-75.152;2022-07-22T05:07:41;100707.78;;;33.14;50.50
56632;BME280;42503;39.928;-75.152;2022-07-22T05:09:42;100698.81;;;33.12;50.53
56632;BME280;42503;39.928;-75.152;2022-07-22T05:11:45;100697.19;;;33.11;50.42
56632;BME280;42503;39.928;-75.152;2022-07-22T05:13:47;100690.69;;;33.10;50.59
56632;BME280;42503;39.928;-75.152;2022-07-22T05:15:49;100702.84;;;33.11;50.65
56632;BME280;42503;39.928;-75.152;2022-07-22T05:17:56;100706.06;;;33.09;50.29
56632;BME280;42503;39.928;-75.152;2022-07-22T05:19:57;100697.91;;;33.08;50.62
56632;BME280;42503;39.928;-75.152;2022-07-22T05:21:59;100690.59;;;33.07;50.38
56632;BME280;42503;39.928;-75.152;2022-07-22T05:24:00;100687.63;;;33.00;50.62
56632;BME280;42503;39.928;-75.152;2022-07-22T05:26:07;100692.53;;;33.03;50.30
56632;BME280;42503;39.928;-75.152;2022-07-22T05:28:09;100691.38;;;33.04;50.38
56632;BME280;42503;39.928;-75.152;2022-07-22T05:30:13;100666.69;;;32.88;50.41
56632;BME280;42503;39.928;-75.152;2022-07-22T05:32:17;100708.44;;;33.07;50.20
56632;BME280;42503;39.928;-75.152;2022-07-22T05:34:21;100701.94;;;33.07;49.64
56632;BME280;42503;39.928;-75.152;2022-07-22T05:36:23;100691.38;;;33.04;50.47
56632;BME280;42503;39.928;-75.152;2022-07-22T05:38:24;100700.31;;;33.06;50.31
56632;BME280;42503;39.928;-75.152;2022-07-22T05:40:25;100700.31;;;33.06;50.52
56632;BME280;42503;39.928;-75.152;2022-07-22T05:42:27;100704.34;;;33.05;50.35
56632;BME280;42503;39.928;-75.152;2022-07-22T05:44:28;100708.38;;;33.04;50.43
56632;BME280;42503;39.928;-75.152;2022-07-22T05:46:30;100703.34;;;32.97;50.49
56632;BME280;42503;39.928;-75.152;2022-07-22T05:48:31;100709.53;;;33.03;50.41
56632;BME280;42503;39.928;-75.152;2022-07-22T05:50:32;100709.84;;;32.98;50.39
56632;BME280;42503;39.928;-75.152;2022-07-22T05:52:37;100713.97;;;33.00;50.44
56632;BME280;42503;39.928;-75.152;2022-07-22T05:54:39;100718.81;;;33.00;50.52
56632;BME280;42503;39.928;-75.152;2022-07-22T05:56:40;100718.00;;;32.99;50.63
56632;BME280;42503;39.928;-75.152;2022-07-22T05:58:45;100722.81;;;32.99;50.61
56632;BME280;42503;39.928;-75.152;2022-07-22T06:00:46;100721.19;;;32.98;50.72
56632;BME280;42503;39.928;-75.152;2022-07-22T06:02:47;100722.81;;;32.99;50.43
56632;BME280;42503;39.928;-75.152;2022-07-22T06:04:49;100735.34;;;32.98;50.62
56632;BME280;42503;39.928;-75.152;2022-07-22T06:06:50;100730.88;;;32.97;50.39
56632;BME280;42503;39.928;-75.152;2022-07-22T06:08:51;100733.72;;;32.97;50.53
56632;BME280;42503;39.928;-75.152;2022-07-22T06:10:53;100723.56;;;32.96;50.60
56632;BME280;42503;39.928;-75.152;2022-07-22T06:12:54;100733.28;;;32.95;50.11
56632;BME280;42503;39.928;-75.152;2022-07-22T06:14:55;100738.09;;;32.94;50.31
56632;BME280;42503;39.928;-75.152;2022-07-22T06:16:57;100732.41;;;32.94;50.58
56632;BME280;42503;39.928;-75.152;2022-07-22T06:19:01;100747.44;;;32.95;50.65
56632;BME280;42503;39.928;-75.152;2022-07-22T06:21:05;100736.09;;;32.95;50.61
56632;BME280;42503;39.928;-75.152;2022-07-22T06:23:08;100741.78;;;32.95;50.53
56632;BME280;42503;39.928;-75.152;2022-07-22T06:25:12;100735.19;;;32.91;50.44
56632;BME280;42503;39.928;-75.152;2022-07-22T06:27:14;100749.81;;;32.93;50.70
56632;BME280;42503;39.928;-75.152;2022-07-22T06:29:18;100740.88;;;32.91;50.71
56632;BME280;42503;39.928;-75.152;2022-07-22T06:31:19;100741.31;;;32.93;50.42
56632;BME280;42503;39.928;-75.152;2022-07-22T06:33:20;100752.66;;;32.93;50.45
56632;BME280;42503;39.928;-75.152;2022-07-22T06:35:24;100746.16;;;32.92;50.72
56632;BME280;42503;39.928;-75.152;2022-07-22T06:37:26;100742.13;;;32.93;50.40
56632;BME280;42503;39.928;-75.152;2022-07-22T06:39:27;100744.13;;;32.93;50.81
56632;BME280;42503;39.928;-75.152;2022-07-22T06:41:31;100742.94;;;32.94;50.43
56632;BME280;42503;39.928;-75.152;2022-07-22T06:43:35;100742.13;;;32.93;50.79
56632;BME280;42503;39.928;-75.152;2022-07-22T06:45:37;100743.31;;;32.92;50.50
56632;BME280;42503;39.928;-75.152;2022-07-22T06:47:38;100749.38;;;32.91;50.41
56632;BME280;42503;39.928;-75.152;2022-07-22T06:49:42;100753.34;;;32.89;50.76
56632;BME280;42503;39.928;-75.152;2022-07-22T06:51:44;100755.84;;;32.91;50.77
56632;BME280;42503;39.928;-75.152;2022-07-22T06:53:48;100755.84;;;32.91;50.92
56632;BME280;42503;39.928;-75.152;2022-07-22T06:55:49;100750.88;;;32.88;50.83
56632;BME280;42503;39.928;-75.152;2022-07-22T06:57:56;100754.19;;;32.90;50.84
56632;BME280;42503;39.928;-75.152;2022-07-22T06:59:58;100751.44;;;32.94;51.11
56632;BME280;42503;39.928;-75.152;2022-07-22T07:02:01;100748.16;;;32.92;51.07
56632;BME280;42503;39.928;-75.152;2022-07-22T07:04:02;100752.19;;;32.91;51.27
56632;BME280;42503;39.928;-75.152;2022-07-22T07:06:09;100749.16;;;32.83;51.26
56632;BME280;42503;39.928;-75.152;2022-07-22T07:08:12;100763.03;;;32.88;51.23
56632;BME280;42503;39.928;-75.152;2022-07-22T07:10:13;100750.06;;;32.87;51.36
56632;BME280;42503;39.928;-75.152;2022-07-22T07:12:16;100751.59;;;32.85;51.38
56632;BME280;42503;39.928;-75.152;2022-07-22T07:14:17;100750.06;;;32.87;51.35
56632;BME280;42503;39.928;-75.152;2022-07-22T07:16:19;100737.66;;;32.76;51.04
56632;BME280;42503;39.928;-75.152;2022-07-22T07:18:20;100762.94;;;32.85;51.11
56632;BME280;42503;39.928;-75.152;2022-07-22T07:20:22;100769.47;;;32.85;51.00
56632;BME280;42503;39.928;-75.152;2022-07-22T07:22:26;100761.22;;;32.80;51.16
56632;BME280;42503;39.928;-75.152;2022-07-22T07:24:28;100769.00;;;32.83;51.08
56632;BME280;42503;39.928;-75.152;2022-07-22T07:26:32;100771.81;;;32.83;51.51
56632;BME280;42503;39.928;-75.152;2022-07-22T07:28:33;100758.66;;;32.75;51.42
56632;BME280;42503;39.928;-75.152;2022-07-22T07:30:34;100770.19;;;32.82;51.30
56632;BME280;42503;39.928;-75.152;2022-07-22T07:32:36;100771.00;;;32.83;51.57
56632;BME280;42503;39.928;-75.152;2022-07-22T07:34:41;100765.25;;;32.79;51.18
56632;BME280;42503;39.928;-75.152;2022-07-22T07:36:42;100773.41;;;32.81;51.22
56632;BME280;42503;39.928;-75.152;2022-07-22T07:38:43;100778.69;;;32.82;51.62
56632;BME280;42503;39.928;-75.152;2022-07-22T07:40:45;100789.53;;;32.80;51.63
56632;BME280;42503;39.928;-75.152;2022-07-22T07:42:46;100786.72;;;32.80;51.55
56632;BME280;42503;39.928;-75.152;2022-07-22T07:44:47;100787.91;;;32.79;51.57
56632;BME280;42503;39.928;-75.152;2022-07-22T07:46:49;100787.91;;;32.79;51.61
56632;BME280;42503;39.928;-75.152;2022-07-22T07:48:50;100800.06;;;32.80;51.80
56632;BME280;42503;39.928;-75.152;2022-07-22T07:50:51;100803.72;;;32.80;51.75
56632;BME280;42503;39.928;-75.152;2022-07-22T07:52:53;100804.91;;;32.79;51.76
56632;BME280;42503;39.928;-75.152;2022-07-22T07:54:54;100806.09;;;32.78;51.81
56632;BME280;42503;39.928;-75.152;2022-07-22T07:56:56;100807.31;;;32.77;51.63
56632;BME280;42503;39.928;-75.152;2022-07-22T07:59:00;100796.59;;;32.71;51.66
56632;BME280;42503;39.928;-75.152;2022-07-22T08:01:02;100808.50;;;32.76;51.42
56632;BME280;42503;39.928;-75.152;2022-07-22T08:03:03;100814.16;;;32.76;51.32
56632;BME280;42503;39.928;-75.152;2022-07-22T08:05:05;100822.66;;;32.76;51.30
56632;BME280;42503;39.928;-75.152;2022-07-22T08:07:07;100818.63;;;32.77;51.64
56632;BME280;42503;39.928;-75.152;2022-07-22T08:09:08;100809.59;;;32.72;51.54
56632;BME280;42503;39.928;-75.152;2022-07-22T08:11:11;100827.13;;;32.77;51.88
56632;BME280;42503;39.928;-75.152;2022-07-22T08:13:15;100825.41;;;32.73;51.60
56632;BME280;42503;39.928;-75.152;2022-07-22T08:15:16;100833.16;;;32.76;51.75
56632;BME280;42503;39.928;-75.152;2022-07-22T08:17:18;100828.34;;;32.76;51.30
56632;BME280;42503;39.928;-75.152;2022-07-22T08:19:19;100829.50;;;32.75;51.51
56632;BME280;42503;39.928;-75.152;2022-07-22T08:21:20;100838.00;;;32.75;51.52
56632;BME280;42503;39.928;-75.152;2022-07-22T08:23:22;100829.06;;;32.73;51.48
56632;BME280;42503;39.928;-75.152;2022-07-22T08:25:24;100831.50;;;32.75;51.16
56632;BME280;42503;39.928;-75.152;2022-07-22T08:27:25;100831.41;;;32.71;51.20
56632;BME280;42503;39.928;-75.152;2022-07-22T08:29:29;100840.38;;;32.73;51.13
56632;BME280;42503;39.928;-75.152;2022-07-22T08:31:34;100831.88;;;32.73;50.94
56632;BME280;42503;39.928;-75.152;2022-07-22T08:33:36;100834.72;;;32.73;50.55
56632;BME280;42503;39.928;-75.152;2022-07-22T08:35:40;100842.75;;;32.71;50.60
56632;BME280;42503;39.928;-75.152;2022-07-22T08:37:41;100839.66;;;32.76;50.37
56632;BME280;42503;39.928;-75.152;2022-07-22T08:39:45;100839.56;;;32.73;50.29
56632;BME280;42503;39.928;-75.152;2022-07-22T08:41:47;100841.84;;;32.67;50.08
56632;BME280;42503;39.928;-75.152;2022-07-22T08:43:52;100836.53;;;32.66;50.38
56632;BME280;42503;39.928;-75.152;2022-07-22T08:45:56;100841.84;;;32.67;49.95
56632;BME280;42503;39.928;-75.152;2022-07-22T08:47:58;100854.09;;;32.71;49.95
56632;BME280;42503;39.928;-75.152;2022-07-22T08:50:00;100851.91;;;32.64;49.74
56632;BME280;42503;39.928;-75.152;2022-07-22T08:52:05;100863.78;;;32.70;49.92
56632;BME280;42503;39.928;-75.152;2022-07-22T08:54:06;100855.66;;;32.69;49.84
56632;BME280;42503;39.928;-75.152;2022-07-22T08:56:07;100862.50;;;32.68;49.49
56632;BME280;42503;39.928;-75.152;2022-07-22T08:58:09;100857.94;;;32.63;49.32
56632;BME280;42503;39.928;-75.152;2022-07-22T09:00:12;100868.53;;;32.66;49.60
56632;BME280;42503;39.928;-75.152;2022-07-22T09:02:17;100867.59;;;32.62;49.40
56632;BME280;42503;39.928;-75.152;2022-07-22T09:04:18;100872.53;;;32.65;49.37
56632;BME280;42503;39.928;-75.152;2022-07-22T09:06:24;100876.56;;;32.64;49.24
56632;BME280;42503;39.928;-75.152;2022-07-22T09:08:26;100882.25;;;32.64;49.19
56632;BME280;42503;39.928;-75.152;2022-07-22T09:10:31;100883.44;;;32.63;49.11
56632;BME280;42503;39.928;-75.152;2022-07-22T09:12:33;100883.44;;;32.63;48.99
56632;BME280;42503;39.928;-75.152;2022-07-22T09:14:52;100888.63;;;32.61;49.08
56632;BME280;42503;39.928;-75.152;2022-07-22T09:16:54;100891.44;;;32.61;49.06
56632;BME280;42503;39.928;-75.152;2022-07-22T09:18:58;100892.66;;;32.60;48.87
56632;BME280;42503;39.928;-75.152;2022-07-22T09:20:59;100898.31;;;32.60;48.74
56632;BME280;42503;39.928;-75.152;2022-07-22T09:23:01;100908.81;;;32.59;48.42
56632;BME280;42503;39.928;-75.152;2022-07-22T09:27:27;100910.34;;;32.57;48.35
56632;BME280;42503;39.928;-75.152;2022-07-22T09:29:28;100913.19;;;32.57;48.19
56632;BME280;42503;39.928;-75.152;2022-07-22T09:31:35;100898.03;;;32.49;48.23
56632;BME280;42503;39.928;-75.152;2022-07-22T09:33:42;100914.38;;;32.56;47.76
56632;BME280;42503;39.928;-75.152;2022-07-22T09:35:47;100924.53;;;32.57;47.77
56632;BME280;42503;39.928;-75.152;2022-07-22T09:37:56;100926.91;;;32.55;47.69
56632;BME280;42503;39.928;-75.152;2022-07-22T09:40:15;100924.06;;;32.55;48.02
56632;BME280;42503;39.928;-75.152;2022-07-22T09:42:19;100924.91;;;32.55;47.53
56632;BME280;42503;39.928;-75.152;2022-07-22T09:44:22;100925.16;;;32.50;47.62
56632;BME280;42503;39.928;-75.152;2022-07-22T09:46:36;100920.31;;;32.51;47.48
56632;BME280;42503;39.928;-75.152;2022-07-22T09:48:39;100929.25;;;32.53;47.21
56632;BME280;42503;39.928;-75.152;2022-07-22T09:50:40;100927.16;;;32.50;44.49
56632;BME280;42503;39.928;-75.152;2022-07-22T09:52:43;100933.44;;;32.43;43.56
56632;BME280;42503;39.928;-75.152;2022-07-22T09:54:44;100940.66;;;32.41;43.67
56632;BME280;42503;39.928;-75.152;2022-07-22T09:56:46;100940.19;;;32.38;45.44
56632;BME280;42503;39.928;-75.152;2022-07-22T09:58:47;100940.66;;;32.41;45.83
56632;BME280;42503;39.928;-75.152;2022-07-22T10:00:49;100946.31;;;32.41;45.45
56632;BME280;42503;39.928;-75.152;2022-07-22T10:03:00;100950.34;;;32.40;45.56
56632;BME280;42503;39.928;-75.152;2022-07-22T10:05:02;100943.50;;;32.41;45.47
56632;BME280;42503;39.928;-75.152;2022-07-22T10:07:04;100952.00;;;32.41;45.32
56632;BME280;42503;39.928;-75.152;2022-07-22T10:09:06;100956.00;;;32.40;45.48
56632;BME280;42503;39.928;-75.152;2022-07-22T10:11:08;100958.38;;;32.37;45.47
56632;BME280;42503;39.928;-75.152;2022-07-22T10:13:10;100960.81;;;32.39;45.49
56632;BME280;42503;39.928;-75.152;2022-07-22T10:15:14;100958.38;;;32.37;45.70
56632;BME280;42503;39.928;-75.152;2022-07-22T10:17:16;100960.00;;;32.38;45.62
56632;BME280;42503;39.928;-75.152;2022-07-22T10:19:17;100970.50;;;32.38;45.58
56632;BME280;42503;39.928;-75.152;2022-07-22T10:21:32;100978.19;;;32.37;45.89
56632;BME280;42503;39.928;-75.152;2022-07-22T10:23:34;100973.81;;;32.40;45.83
56632;BME280;42503;39.928;-75.152;2022-07-22T10:25:57;100969.91;;;32.32;45.83
56632;BME280;42503;39.928;-75.152;2022-07-22T10:28:02;100995.19;;;32.37;45.60